Silver Mariner — V7XQ6 — position and weather

sailwx.info

Track history (hours):
 
Tides and Currents Weather Stations Pressure Air Temp Water Temp Dewpoint Dewpoint Depression Visibility Wind Speed Wind Dir Waves Ship Positions

Silver Mariner

Last reported at 2014-Jul-31 16:10 UTC. Time now 2014-Dec-18 17:21 UTC.
Position S 28°46' E 032°52'.
Warning: this ship's position is months out of date.

Length 288 m; draft 8.6 m.

Type: Cargo ship. MMSI: 538004545.

Date/timePositionNaut miles runAvg speedWind from/ knotsBaromVisibWave heightAir tempDewpointWater temp
2014-Jul-31 16:10S 28°46' E 032°52'4 7.0
2014-Jul-31 15:33S 28°47' E 032°47'7 7.2
2014-Jul-31 14:33S 28°47' E 032°39'8 7.7
2014-Jul-31 13:33S 28°48' E 032°30'8 7.7
2014-Jul-31 12:33S 28°49' E 032°21'8 7.6
2014-Jul-31 11:33S 28°51' E 032°13'8 7.7
2014-Jul-31 10:32S 28°48' E 032°04'1 0.1
2014-Jul-30 22:18S 28°49' E 032°03'0 0.0
2014-Jul-30 20:30S 28°49' E 032°03'0 0.0
2014-Jul-30 16:06S 28°49' E 032°03'0 0.0
2014-Jul-30 15:24S 28°49' E 032°03'0 0.0
2014-Jul-30 14:24S 28°49' E 032°03'0 0.0
2014-Jul-30 13:30S 28°49' E 032°03'0 0.0
2014-Jul-30 12:12S 28°49' E 032°03'0 0.0
2014-Jul-30 11:06S 28°49' E 032°03'0 0.0
2014-Jul-30 10:06S 28°49' E 032°03'0 0.0
2014-Jul-29 14:24S 28°49' E 032°03'  
2014-Jul-25 18:26S 28°56' E 032°11'0 0.0
2014-Jul-25 17:14S 28°56' E 032°11'0 0.0
2014-Jul-25 16:26S 28°56' E 032°11'0 0.0
2014-Jul-25 15:32S 28°56' E 032°11'0 0.0
2014-Jul-25 14:31S 28°56' E 032°11'0 0.0
2014-Jul-25 13:31S 28°56' E 032°11'0 0.0
2014-Jul-25 12:19S 28°56' E 032°11'0 0.0
2014-Jul-25 11:25S 28°56' E 032°11'0 0.0
2014-Jul-25 10:31S 28°56' E 032°11'0 0.0
2014-Jul-25 09:31S 28°56' E 032°11'0 0.0
2014-Jul-25 08:31S 28°56' E 032°11'0 0.0
2014-Jul-25 07:31S 28°56' E 032°11'0 0.0
2014-Jul-25 06:31S 28°56' E 032°11'0 0.0
2014-Jul-25 05:31S 28°56' E 032°11'0 0.0
2014-Jul-25 04:31S 28°56' E 032°11'0 0.0
2014-Jul-25 03:31S 28°56' E 032°11'0 0.0
2014-Jul-25 02:31S 28°56' E 032°11'0 0.0
2014-Jul-25 01:19S 28°56' E 032°11'0 0.0
2014-Jul-24 23:31S 28°56' E 032°11'0 0.0
2014-Jul-24 22:31S 28°56' E 032°11'0 0.0
2014-Jul-24 21:25S 28°56' E 032°11'0 0.0
2014-Jul-24 20:31S 28°56' E 032°11'0 0.0
2014-Jul-24 19:25S 28°56' E 032°11'0 0.0
2014-Jul-24 14:31S 28°56' E 032°11'  
Track history (hours):
 
Tides and Currents Weather Stations Pressure Air Temp Water Temp Dewpoint Dewpoint Depression Visibility Wind Speed Wind Dir Waves Ship Positions

Silver Mariner

Last reported at 2014-Jul-31 16:10 UTC. Time now 2014-Dec-18 17:21 UTC.
Position S 28°46' E 032°52'.
Warning: this ship's position is months out of date.

Length 288 m; draft 8.6 m.

Type: Cargo ship. MMSI: 538004545.

Date/timePositionNaut miles runAvg speedWind from/ knotsBaromVisibWave heightAir tempDewpointWater temp
2014-Jul-31 16:10S 28°46' E 032°52'4 7.0
2014-Jul-31 15:33S 28°47' E 032°47'7 7.2
2014-Jul-31 14:33S 28°47' E 032°39'8 7.7
2014-Jul-31 13:33S 28°48' E 032°30'8 7.7
2014-Jul-31 12:33S 28°49' E 032°21'8 7.6
2014-Jul-31 11:33S 28°51' E 032°13'8 7.7
2014-Jul-31 10:32S 28°48' E 032°04'1 0.1
2014-Jul-30 22:18S 28°49' E 032°03'0 0.0
2014-Jul-30 20:30S 28°49' E 032°03'0 0.0
2014-Jul-30 16:06S 28°49' E 032°03'0 0.0
2014-Jul-30 15:24S 28°49' E 032°03'0 0.0
2014-Jul-30 14:24S 28°49' E 032°03'0 0.0
2014-Jul-30 13:30S 28°49' E 032°03'0 0.0
2014-Jul-30 12:12S 28°49' E 032°03'0 0.0
2014-Jul-30 11:06S 28°49' E 032°03'0 0.0
2014-Jul-30 10:06S 28°49' E 032°03'0 0.0
2014-Jul-29 14:24S 28°49' E 032°03'  
2014-Jul-25 18:26S 28°56' E 032°11'0 0.0
2014-Jul-25 17:14S 28°56' E 032°11'0 0.0
2014-Jul-25 16:26S 28°56' E 032°11'0 0.0
2014-Jul-25 15:32S 28°56' E 032°11'0 0.0
2014-Jul-25 14:31S 28°56' E 032°11'0 0.0
2014-Jul-25 13:31S 28°56' E 032°11'0 0.0
2014-Jul-25 12:19S 28°56' E 032°11'0 0.0
2014-Jul-25 11:25S 28°56' E 032°11'0 0.0
2014-Jul-25 10:31S 28°56' E 032°11'0 0.0
2014-Jul-25 09:31S 28°56' E 032°11'0 0.0
2014-Jul-25 08:31S 28°56' E 032°11'0 0.0
2014-Jul-25 07:31S 28°56' E 032°11'0 0.0
2014-Jul-25 06:31S 28°56' E 032°11'0 0.0
2014-Jul-25 05:31S 28°56' E 032°11'0 0.0
2014-Jul-25 04:31S 28°56' E 032°11'0 0.0
2014-Jul-25 03:31S 28°56' E 032°11'0 0.0
2014-Jul-25 02:31S 28°56' E 032°11'0 0.0
2014-Jul-25 01:19S 28°56' E 032°11'0 0.0
2014-Jul-24 23:31S 28°56' E 032°11'0 0.0
2014-Jul-24 22:31S 28°56' E 032°11'0 0.0
2014-Jul-24 21:25S 28°56' E 032°11'0 0.0
2014-Jul-24 20:31S 28°56' E 032°11'0 0.0
2014-Jul-24 19:25S 28°56' E 032°11'0 0.0
2014-Jul-24 14:31S 28°56' E 032°11'  

Dump ship's entire track history